createdAt,value
2019-03-23T00:04:51.733Z,92.50
2019-03-23T00:10:01.992Z,92.60
2019-03-23T00:15:09.407Z,92.90
2019-03-23T00:20:22.571Z,93.40
2019-03-23T00:25:27.864Z,93.30
2019-03-23T00:30:38.122Z,93.00
2019-03-23T00:35:43.572Z,93.00
2019-03-23T00:40:51.773Z,92.90
2019-03-23T00:45:56.744Z,92.80
2019-03-23T00:51:02.006Z,92.60
2019-03-23T00:56:16.480Z,92.70
2019-03-23T01:01:21.813Z,92.60
2019-03-23T01:06:30.586Z,92.40
2019-03-23T01:11:37.125Z,92.70
2019-03-23T01:16:46.508Z,92.60
2019-03-23T01:21:51.939Z,93.00
2019-03-23T01:27:00.056Z,92.90
2019-03-23T01:32:04.231Z,93.10
2019-03-23T01:37:16.177Z,93.00
2019-03-23T01:42:20.371Z,93.00
2019-03-23T01:47:26.405Z,92.60
2019-03-23T01:52:31.067Z,92.60
2019-03-23T01:57:41.185Z,92.40
2019-03-23T02:02:49.106Z,92.50
2019-03-23T02:07:54.812Z,92.50
2019-03-23T02:12:59.473Z,92.40
2019-03-23T02:18:04.536Z,92.80
2019-03-23T02:23:08.801Z,92.30
2019-03-23T02:28:13.293Z,92.40
2019-03-23T02:33:17.702Z,92.20
2019-03-23T02:38:21.838Z,92.40
2019-03-23T02:43:27.560Z,92.20
2019-03-23T02:48:31.663Z,92.00
2019-03-23T02:53:36.116Z,92.20
2019-03-23T02:58:40.592Z,92.50
2019-03-23T03:03:47.913Z,92.50
2019-03-23T03:08:51.493Z,92.70
2019-03-23T03:13:56.399Z,92.90
2019-03-23T03:19:00.553Z,92.80
2019-03-23T03:24:04.639Z,92.80
2019-03-23T03:29:09.032Z,92.60
2019-03-23T03:34:14.603Z,92.50
2019-03-23T03:39:19.195Z,92.60
2019-03-23T03:44:25.245Z,92.60
2019-03-23T03:49:29.921Z,92.90
2019-03-23T03:54:34.036Z,94.00
2019-03-23T03:59:38.980Z,93.30
2019-03-23T04:04:43.157Z,93.50
2019-03-23T04:09:47.280Z,93.50
2019-03-23T04:14:51.402Z,93.30
2019-03-23T04:19:56.742Z,93.20
2019-03-23T04:25:02.081Z,93.20
2019-03-23T04:30:06.990Z,93.10
2019-03-23T04:35:11.695Z,93.70
2019-03-23T04:40:15.816Z,93.10
2019-03-23T04:45:20.170Z,93.10
2019-03-23T04:50:24.798Z,93.00
2019-03-23T04:55:29.939Z,93.00
2019-03-23T05:00:36.243Z,92.80
2019-03-23T05:05:40.746Z,93.10
2019-03-23T05:10:45.265Z,92.60
2019-03-23T05:15:49.365Z,92.30
2019-03-23T05:20:53.799Z,92.20
2019-03-23T05:25:57.983Z,92.10
2019-03-23T05:31:02.188Z,91.80
2019-03-23T05:36:06.628Z,91.70
2019-03-23T05:41:10.871Z,91.20
2019-03-23T05:46:16.205Z,91.10
2019-03-23T05:51:20.769Z,91.00
2019-03-23T05:56:26.685Z,90.90
2019-03-23T06:01:30.831Z,90.80
2019-03-23T06:06:35.968Z,90.20
2019-03-23T06:11:40.956Z,90.80
2019-03-23T06:16:45.434Z,90.40
2019-03-23T06:21:49.960Z,90.60
2019-03-23T06:26:54.209Z,90.10
2019-03-23T06:31:58.613Z,89.80
2019-03-23T06:37:03.403Z,89.10
2019-03-23T06:42:07.920Z,88.70
2019-03-23T06:47:12.029Z,88.20
2019-03-23T06:52:18.165Z,87.60
2019-03-23T06:57:22.419Z,87.00
2019-03-23T07:02:28.363Z,86.50
2019-03-23T07:07:34.681Z,86.10
2019-03-23T07:12:39.724Z,85.70
2019-03-23T07:17:44.200Z,85.30
2019-03-23T07:22:48.774Z,85.30
2019-03-23T07:27:53.261Z,84.50
2019-03-23T07:32:58.099Z,84.60
2019-03-23T07:38:02.902Z,84.30
2019-03-23T07:43:08.106Z,83.10
2019-03-23T07:48:12.876Z,84.20
2019-03-23T07:53:17.715Z,83.50
2019-03-23T07:58:22.088Z,84.50
2019-03-23T08:03:27.037Z,84.30
2019-03-23T08:08:31.132Z,82.50
2019-03-23T08:13:36.074Z,81.00
2019-03-23T08:18:40.196Z,81.40
2019-03-23T08:23:45.803Z,80.20
2019-03-23T08:28:49.979Z,79.10
2019-03-23T08:33:54.197Z,78.90
2019-03-23T08:38:58.667Z,77.70
2019-03-23T08:44:02.914Z,77.90
2019-03-23T08:49:09.282Z,77.80
2019-03-23T08:54:13.452Z,78.00
2019-03-23T08:59:17.819Z,77.20
2019-03-23T09:04:22.776Z,76.00
2019-03-23T09:09:29.175Z,75.70
2019-03-23T09:14:33.710Z,74.90
2019-03-23T09:19:38.575Z,73.30
2019-03-23T09:24:42.675Z,71.20
2019-03-23T09:29:47.415Z,69.40
2019-03-23T09:34:52.122Z,68.40
2019-03-23T09:39:58.609Z,66.60
2019-03-23T09:45:02.986Z,66.40
2019-03-23T09:50:07.782Z,65.10
2019-03-23T09:55:12.193Z,65.00
2019-03-23T10:00:16.381Z,64.60
2019-03-23T10:05:22.279Z,64.40
2019-03-23T10:10:28.022Z,63.60
2019-03-23T10:15:32.946Z,62.50
2019-03-23T10:20:37.430Z,62.50
2019-03-23T10:25:42.431Z,59.90
2019-03-23T10:30:46.757Z,59.90
2019-03-23T10:35:53.502Z,60.50
2019-03-23T10:40:56.999Z,60.70
2019-03-23T10:46:04.152Z,59.90
2019-03-23T10:51:09.294Z,59.80
2019-03-23T10:56:13.689Z,59.60
2019-03-23T11:01:17.819Z,59.50
2019-03-23T11:06:24.785Z,59.10
2019-03-23T11:11:31.007Z,58.70
2019-03-23T11:16:35.402Z,58.40
2019-03-23T11:21:40.304Z,58.30
2019-03-23T11:26:44.648Z,58.60
2019-03-23T11:31:49.048Z,58.30
2019-03-23T11:36:55.299Z,58.40
2019-03-23T11:42:02.237Z,57.50
2019-03-23T11:47:06.374Z,57.30
2019-03-23T11:52:10.652Z,57.00
2019-03-23T11:57:15.120Z,57.20
2019-03-23T12:02:19.447Z,55.60
2019-03-23T12:07:23.597Z,55.20
2019-03-23T12:12:28.569Z,55.40
2019-03-23T12:17:32.772Z,55.40
2019-03-23T12:22:37.115Z,55.60
2019-03-23T12:27:42.550Z,55.30
2019-03-23T12:32:47.388Z,54.90
2019-03-23T12:37:51.514Z,55.40
2019-03-23T12:42:57.242Z,54.40
2019-03-23T12:48:02.464Z,55.20
2019-03-23T12:53:08.379Z,51.10
2019-03-23T12:58:12.474Z,51.70
2019-03-23T13:03:16.573Z,50.10
2019-03-23T13:08:21.947Z,50.90
2019-03-23T13:13:26.876Z,50.40
2019-03-23T13:18:31.040Z,50.90
2019-03-23T13:23:36.047Z,50.20
2019-03-23T13:28:40.553Z,51.10
2019-03-23T13:33:44.691Z,50.80
2019-03-23T13:38:48.987Z,50.40
2019-03-23T13:43:53.074Z,51.00
2019-03-23T13:48:57.487Z,50.70
2019-03-23T13:54:03.198Z,51.00
2019-03-23T13:59:07.612Z,50.40
2019-03-23T14:04:13.538Z,49.00
2019-03-23T14:09:17.934Z,49.50
2019-03-23T14:14:22.151Z,49.20
2019-03-23T14:19:26.282Z,49.60
2019-03-23T14:24:30.431Z,48.70
2019-03-23T14:29:34.612Z,49.20
2019-03-23T14:34:38.963Z,49.20
2019-03-23T14:39:43.085Z,49.20
2019-03-23T14:44:49.028Z,48.70
2019-03-23T14:49:53.263Z,48.30
2019-03-23T14:54:57.363Z,47.30
2019-03-23T15:00:01.680Z,48.40
2019-03-23T15:05:08.021Z,48.80
2019-03-23T15:10:12.325Z,48.10
2019-03-23T15:15:17.368Z,47.30
2019-03-23T15:20:21.616Z,46.50
2019-03-23T15:25:26.692Z,34.20
2019-03-23T15:30:30.884Z,28.40
2019-03-23T15:35:35.252Z,26.20
2019-03-23T15:40:40.268Z,24.70
2019-03-23T15:45:45.959Z,24.10
2019-03-23T15:50:50.104Z,23.40
2019-03-23T15:55:54.366Z,23.10
2019-03-23T16:00:58.513Z,23.10
2019-03-23T16:06:02.641Z,23.30
2019-03-23T16:11:07.564Z,24.30
2019-03-23T16:16:11.645Z,24.00
2019-03-23T16:21:16.076Z,25.20
2019-03-23T16:26:21.215Z,27.00
2019-03-23T16:31:26.254Z,29.20
2019-03-23T16:36:30.408Z,31.20
2019-03-23T16:41:34.420Z,38.10
2019-03-23T16:46:40.179Z,41.00
2019-03-23T16:51:44.362Z,44.00
2019-03-23T16:56:49.046Z,46.50
2019-03-23T17:01:54.277Z,48.80
2019-03-23T17:06:59.301Z,50.80
2019-03-23T17:12:03.660Z,52.60
2019-03-23T17:17:11.600Z,54.90
2019-03-23T17:22:16.580Z,56.80
2019-03-23T17:27:22.862Z,57.70
2019-03-23T17:32:27.105Z,58.60
2019-03-23T17:37:31.196Z,59.20
2019-03-23T17:42:37.236Z,61.40
2019-03-23T17:47:42.699Z,62.10
2019-03-23T17:52:47.912Z,63.10
2019-03-23T18:02:56.933Z,63.50
2019-03-23T18:08:01.152Z,65.30
2019-03-23T18:13:15.960Z,65.60
2019-03-23T18:18:14.424Z,66.10
2019-03-23T18:23:19.365Z,66.80
2019-03-23T18:28:23.462Z,67.40
2019-03-23T18:33:29.760Z,68.00
2019-03-23T18:38:34.790Z,68.50
2019-03-23T18:43:39.731Z,69.20
2019-03-23T18:48:46.479Z,68.30
2019-03-23T18:53:52.794Z,70.00
2019-03-23T18:58:57.128Z,70.70
2019-03-23T19:04:01.969Z,70.70
2019-03-23T19:09:07.213Z,70.90
2019-03-23T19:14:12.355Z,71.60
2019-03-23T19:19:18.949Z,71.90
2019-03-23T19:24:24.349Z,72.30
2019-03-23T19:29:28.467Z,72.60
2019-03-23T19:34:32.677Z,73.00
2019-03-23T19:39:38.138Z,72.60
2019-03-23T19:44:42.622Z,73.50
2019-03-23T19:49:46.760Z,73.60
2019-03-23T19:54:51.232Z,73.60
2019-03-23T19:59:56.139Z,73.50
2019-03-23T20:05:00.418Z,73.40
2019-03-23T20:10:05.956Z,73.90
2019-03-23T20:15:10.905Z,74.50
2019-03-23T20:20:15.442Z,74.20
2019-03-23T20:25:20.656Z,74.30
2019-03-23T20:30:24.757Z,74.80
2019-03-23T20:35:30.249Z,73.70
2019-03-23T20:40:34.693Z,73.30
2019-03-23T20:45:39.044Z,73.60
2019-03-23T20:50:44.562Z,75.30
2019-03-23T20:55:48.712Z,76.00
2019-03-23T21:00:52.881Z,76.30
2019-03-23T21:05:57.956Z,78.10
2019-03-23T21:11:04.105Z,79.70
2019-03-23T21:16:09.440Z,82.40
2019-03-23T21:21:13.805Z,81.90
2019-03-23T21:26:19.612Z,81.60
2019-03-23T21:31:25.756Z,82.30
2019-03-23T21:36:30.730Z,82.30
2019-03-23T21:41:35.317Z,82.50
2019-03-23T21:46:40.913Z,82.80
2019-03-23T21:51:45.049Z,83.30
2019-03-23T21:56:49.998Z,83.50
2019-03-23T22:01:54.339Z,82.90
2019-03-23T22:06:58.924Z,82.80
2019-03-23T22:12:04.458Z,84.40
2019-03-23T22:17:10.058Z,82.70
2019-03-23T22:22:14.597Z,82.80
2019-03-23T22:27:19.273Z,82.40
2019-03-23T22:32:24.488Z,82.40
2019-03-23T22:37:30.615Z,82.30
2019-03-23T22:42:36.211Z,81.70
2019-03-23T22:47:40.405Z,81.50
2019-03-23T22:52:45.956Z,82.10
2019-03-23T22:57:50.345Z,82.60
2019-03-23T23:08:01.717Z,84.90
2019-03-23T23:13:05.793Z,85.70
2019-03-23T23:18:11.160Z,86.00
2019-03-23T23:23:16.367Z,86.00
2019-03-23T23:28:21.394Z,86.60
2019-03-23T23:33:25.892Z,86.60
2019-03-23T23:38:31.828Z,86.70
2019-03-23T23:43:37.230Z,86.90
2019-03-23T23:48:50.860Z,87.20
2019-03-23T23:53:49.146Z,87.30
2019-03-23T23:58:54.150Z,87.60
